createdAt,value
2022-08-22T00:01:04.138Z,18.47
2022-08-22T00:03:04.983Z,21.56
2022-08-22T00:04:22.347Z,18.38
2022-08-22T00:07:56.991Z,18.33
2022-08-22T00:11:21.987Z,18.25
2022-08-22T00:14:52.852Z,18.20
2022-08-22T00:18:44.791Z,18.18
2022-08-22T00:22:22.989Z,18.15
2022-08-22T00:25:56.105Z,18.13
2022-08-22T00:29:03.876Z,18.07
2022-08-22T00:32:32.706Z,18.09
2022-08-22T00:35:46.291Z,18.06
2022-08-22T00:39:03.137Z,18.03
2022-08-22T00:42:37.354Z,18.03
2022-08-22T00:46:26.391Z,17.97
2022-08-22T00:49:36.032Z,17.93
2022-08-22T00:52:42.807Z,17.89
2022-08-22T00:56:20.627Z,17.87
2022-08-22T00:59:49.488Z,17.85
2022-08-22T01:03:08.737Z,17.86
2022-08-22T01:06:30.847Z,17.81
2022-08-22T01:09:41.330Z,17.76
2022-08-22T01:13:14.139Z,17.74
2022-08-22T01:16:37.466Z,17.69
2022-08-22T01:20:00.385Z,17.66
2022-08-22T01:23:19.621Z,17.66
2022-08-22T01:27:19.513Z,17.61
2022-08-22T01:30:48.466Z,17.58
2022-08-22T01:34:29.784Z,17.58
2022-08-22T01:38:31.176Z,17.57
2022-08-22T01:41:59.610Z,17.50
2022-08-22T01:45:15.394Z,17.48
2022-08-22T01:48:33.920Z,17.46
2022-08-22T01:52:09.058Z,17.45
2022-08-22T01:55:46.065Z,17.46
2022-08-22T01:59:02.315Z,17.48
2022-08-22T02:02:12.215Z,17.47
2022-08-22T02:05:31.744Z,17.44
2022-08-22T02:09:04.347Z,17.40
2022-08-22T02:12:21.530Z,17.40
2022-08-22T02:15:38.826Z,17.39
2022-08-22T02:18:50.364Z,17.40
2022-08-22T02:22:13.396Z,17.40
2022-08-22T02:25:23.640Z,17.36
2022-08-22T02:28:41.089Z,17.33
2022-08-22T02:32:22.162Z,17.30
2022-08-22T02:35:35.352Z,17.22
2022-08-22T02:38:49.696Z,17.21
2022-08-22T02:42:17.170Z,17.23
2022-08-22T02:45:38.984Z,17.17
2022-08-22T02:48:52.158Z,17.16
2022-08-22T02:52:11.642Z,17.10
2022-08-22T02:55:21.351Z,17.06
2022-08-22T02:58:44.615Z,17.03
2022-08-22T03:01:48.813Z,17.07
2022-08-22T03:04:55.980Z,17.06
2022-08-22T03:08:29.205Z,17.05
2022-08-22T03:11:38.597Z,17.02
2022-08-22T03:15:07.504Z,16.97
2022-08-22T03:18:19.394Z,16.92
2022-08-22T03:21:42.362Z,16.88
2022-08-22T03:25:04.843Z,16.81
2022-08-22T03:28:20.310Z,16.78
2022-08-22T03:31:26.204Z,16.78
2022-08-22T03:34:30.141Z,16.75
2022-08-22T03:37:37.789Z,16.70
2022-08-22T03:41:24.501Z,16.69
2022-08-22T03:44:54.213Z,16.69
2022-08-22T03:48:17.597Z,16.66
2022-08-22T03:51:46.914Z,16.63
2022-08-22T03:55:15.147Z,16.62
2022-08-22T03:58:57.224Z,16.63
2022-08-22T04:03:03.790Z,16.60
2022-08-22T04:06:37.733Z,16.60
2022-08-22T04:10:16.494Z,16.56
2022-08-22T04:13:36.852Z,16.59
2022-08-22T04:16:56.270Z,16.60
2022-08-22T04:20:20.912Z,16.58
2022-08-22T04:23:40.414Z,16.56
2022-08-22T04:26:53.993Z,16.53
2022-08-22T04:30:07.458Z,16.55
2022-08-22T04:33:46.548Z,16.51
2022-08-22T04:37:09.992Z,16.53
2022-08-22T04:40:25.717Z,16.53
2022-08-22T04:43:33.270Z,16.56
2022-08-22T04:47:33.618Z,16.61
2022-08-22T04:51:12.875Z,16.65
2022-08-22T04:54:24.327Z,16.66
2022-08-22T04:57:36.651Z,16.69
2022-08-22T05:00:57.535Z,16.72
2022-08-22T05:04:07.360Z,16.75
2022-08-22T05:07:14.591Z,16.78
2022-08-22T05:10:25.745Z,16.80
2022-08-22T05:13:39.617Z,16.81
2022-08-22T05:16:47.977Z,16.81
2022-08-22T05:19:56.547Z,16.83
2022-08-22T05:23:17.513Z,16.86
2022-08-22T05:26:21.932Z,16.85
2022-08-22T05:29:29.902Z,16.87
2022-08-22T05:32:52.177Z,16.93
2022-08-22T05:36:06.031Z,17.00
2022-08-22T05:39:23.720Z,17.13
2022-08-22T05:42:37.467Z,17.23
2022-08-22T05:45:46.037Z,17.33
2022-08-22T05:48:58.572Z,17.44
2022-08-22T05:52:10.405Z,17.52
2022-08-22T05:55:30.484Z,17.63
2022-08-22T05:58:41.508Z,17.74
2022-08-22T06:01:53.816Z,17.83
2022-08-22T06:05:00.934Z,17.84
2022-08-22T06:08:14.273Z,17.90
2022-08-22T06:11:22.394Z,17.94
2022-08-22T06:14:40.625Z,17.98
2022-08-22T06:17:52.886Z,18.01
2022-08-22T06:21:03.666Z,18.09
2022-08-22T06:24:13.062Z,18.16
2022-08-22T06:27:21.198Z,18.19
2022-08-22T06:30:28.360Z,18.23
2022-08-22T06:33:38.430Z,18.26
2022-08-22T06:36:48.185Z,18.34
2022-08-22T06:39:54.909Z,18.43
2022-08-22T06:42:59.170Z,18.49
2022-08-22T06:46:03.762Z,18.58
2022-08-22T06:49:09.136Z,18.65
2022-08-22T06:52:24.949Z,18.71
2022-08-22T06:55:30.575Z,18.80
2022-08-22T06:58:37.719Z,18.83
2022-08-22T07:01:50.763Z,18.97
2022-08-22T07:04:55.152Z,19.13
2022-08-22T07:08:06.425Z,19.27
2022-08-22T07:11:17.496Z,19.46
2022-08-22T07:14:33.135Z,19.58
2022-08-22T07:17:49.658Z,19.82
2022-08-22T07:20:57.038Z,19.90
2022-08-22T07:24:02.384Z,20.14
2022-08-22T07:27:18.413Z,20.40
2022-08-22T07:30:34.424Z,20.50
2022-08-22T07:33:46.420Z,20.53
2022-08-22T07:36:58.923Z,20.80
2022-08-22T07:40:12.998Z,20.90
2022-08-22T07:43:38.083Z,21.13
2022-08-22T07:46:52.097Z,21.26
2022-08-22T07:49:59.861Z,21.51
2022-08-22T07:53:28.333Z,21.49
2022-08-22T07:56:42.347Z,21.69
2022-08-22T07:59:52.095Z,21.83
2022-08-22T08:03:01.101Z,21.83
2022-08-22T08:06:05.721Z,21.80
2022-08-22T08:09:15.606Z,21.87
2022-08-22T08:12:26.106Z,21.99
2022-08-22T08:15:34.641Z,22.21
2022-08-22T08:18:39.620Z,22.23
2022-08-22T08:21:51.515Z,21.98
2022-08-22T08:24:58.617Z,22.18
2022-08-22T08:28:23.317Z,22.25
2022-08-22T08:31:31.900Z,22.38
2022-08-22T08:34:38.225Z,22.58
2022-08-22T08:37:52.897Z,22.67
2022-08-22T08:41:44.857Z,22.60
2022-08-22T08:44:51.656Z,22.68
2022-08-22T08:48:21.013Z,22.81
2022-08-22T08:51:36.951Z,23.03
2022-08-22T08:54:43.283Z,23.06
2022-08-22T08:58:17.646Z,23.23
2022-08-22T09:02:03.880Z,23.32
2022-08-22T09:05:27.669Z,23.25
2022-08-22T09:09:01.924Z,23.27
2022-08-22T09:12:14.155Z,23.20
2022-08-22T09:15:58.604Z,23.21
2022-08-22T09:19:11.874Z,23.58
2022-08-22T09:23:03.940Z,23.52
2022-08-22T09:26:29.233Z,23.82
2022-08-22T09:29:54.536Z,23.93
2022-08-22T09:33:13.993Z,24.00
2022-08-22T09:36:45.829Z,23.93
2022-08-22T09:40:32.899Z,24.26
2022-08-22T09:43:55.126Z,24.29
2022-08-22T09:47:24.746Z,24.29
2022-08-22T09:50:44.799Z,24.29
2022-08-22T09:54:14.806Z,24.29
2022-08-22T09:57:37.947Z,24.42
2022-08-22T10:00:54.981Z,24.56
2022-08-22T10:04:14.610Z,24.56
2022-08-22T10:07:32.570Z,24.48
2022-08-22T10:10:46.570Z,24.42
2022-08-22T10:14:00.817Z,24.44
2022-08-22T10:17:21.905Z,24.62
2022-08-22T10:20:36.099Z,24.56
2022-08-22T10:23:49.564Z,24.45
2022-08-22T10:26:58.797Z,24.55
2022-08-22T10:30:20.341Z,24.63
2022-08-22T10:33:35.220Z,24.74
2022-08-22T10:37:07.260Z,24.68
2022-08-22T10:40:34.337Z,24.58
2022-08-22T10:43:49.708Z,24.58
2022-08-22T10:47:24.045Z,24.61
2022-08-22T10:50:33.510Z,24.60
2022-08-22T10:53:59.025Z,24.48
2022-08-22T10:57:27.592Z,24.57
2022-08-22T11:00:46.213Z,24.86
2022-08-22T11:04:12.069Z,24.96
2022-08-22T11:07:28.888Z,24.77
2022-08-22T11:10:55.012Z,24.50
2022-08-22T11:14:13.393Z,24.43
2022-08-22T11:17:35.579Z,24.53
2022-08-22T11:20:55.484Z,24.59
2022-08-22T11:24:35.266Z,24.64
2022-08-22T11:27:53.292Z,24.35
2022-08-22T11:31:31.854Z,24.26
2022-08-22T11:35:03.657Z,24.42
2022-08-22T11:38:32.725Z,24.54
2022-08-22T11:41:41.284Z,24.16
2022-08-22T11:44:54.279Z,24.20
2022-08-22T11:48:06.332Z,24.30
2022-08-22T11:51:45.977Z,24.16
2022-08-22T11:55:32.725Z,24.14
2022-08-22T11:59:01.346Z,24.23
2022-08-22T12:02:17.385Z,24.29
2022-08-22T12:05:30.759Z,24.64
2022-08-22T12:08:40.777Z,24.71
2022-08-22T12:12:00.135Z,24.82
2022-08-22T12:15:15.967Z,24.93
2022-08-22T12:18:21.372Z,24.83
2022-08-22T12:21:43.832Z,24.72
2022-08-22T12:25:07.776Z,24.40
2022-08-22T12:28:25.524Z,24.74
2022-08-22T12:32:04.470Z,24.95
2022-08-22T12:35:29.823Z,25.15
2022-08-22T12:38:52.765Z,25.13
2022-08-22T12:42:27.563Z,25.41
2022-08-22T12:45:48.039Z,25.40
2022-08-22T12:49:13.065Z,25.38
2022-08-22T12:52:30.954Z,25.59
2022-08-22T12:56:34.219Z,25.63
2022-08-22T12:59:45.092Z,25.50
2022-08-22T13:02:52.940Z,25.41
2022-08-22T13:06:03.234Z,25.47
2022-08-22T13:09:19.673Z,25.35
2022-08-22T13:12:35.185Z,25.37
2022-08-22T13:15:56.523Z,25.55
2022-08-22T13:19:07.820Z,25.54
2022-08-22T13:22:20.321Z,25.58
2022-08-22T13:25:28.477Z,25.41
2022-08-22T13:28:40.696Z,25.29
2022-08-22T13:31:52.819Z,25.18
2022-08-22T13:35:00.626Z,25.20
2022-08-22T13:38:13.044Z,25.22
2022-08-22T13:41:30.646Z,25.09
2022-08-22T13:44:41.814Z,25.12
2022-08-22T13:47:51.754Z,25.25
2022-08-22T13:51:14.419Z,25.20
2022-08-22T13:54:41.524Z,25.18
2022-08-22T13:58:00.892Z,25.24
2022-08-22T14:01:32.041Z,25.20
2022-08-22T14:04:41.639Z,25.23
2022-08-22T14:07:59.867Z,25.32
2022-08-22T14:11:14.407Z,25.33
2022-08-22T14:14:33.626Z,25.09
2022-08-22T14:17:42.886Z,24.92
2022-08-22T14:20:48.641Z,24.82
2022-08-22T14:23:57.869Z,24.79
2022-08-22T14:27:12.291Z,24.65
2022-08-22T14:30:24.440Z,24.67
2022-08-22T14:33:45.355Z,24.63
2022-08-22T14:37:00.200Z,24.61
2022-08-22T14:40:07.734Z,24.56
2022-08-22T14:43:40.398Z,24.65
2022-08-22T14:46:44.483Z,24.61
2022-08-22T14:49:56.761Z,24.66
2022-08-22T14:53:22.169Z,24.58
2022-08-22T14:56:30.421Z,24.63
2022-08-22T14:59:43.837Z,24.57
2022-08-22T15:02:48.347Z,24.51
2022-08-22T15:06:06.401Z,24.42
2022-08-22T15:09:49.079Z,24.54
2022-08-22T15:12:58.621Z,24.44
2022-08-22T15:16:16.177Z,24.39
2022-08-22T15:19:45.765Z,24.47
2022-08-22T15:22:51.790Z,24.39
2022-08-22T15:26:03.835Z,24.35
2022-08-22T15:29:24.856Z,24.34
2022-08-22T15:32:31.341Z,24.41
2022-08-22T15:35:38.842Z,24.31
2022-08-22T15:38:48.453Z,24.22
2022-08-22T15:41:53.356Z,24.33
2022-08-22T15:44:59.320Z,24.26
2022-08-22T15:48:13.460Z,24.29
2022-08-22T15:51:31.494Z,24.13
2022-08-22T15:54:41.557Z,24.14
2022-08-22T15:58:09.066Z,24.06
2022-08-22T16:01:22.298Z,24.00
2022-08-22T16:04:50.253Z,23.97
2022-08-22T16:07:57.632Z,23.90
2022-08-22T16:11:01.674Z,23.88
2022-08-22T16:14:46.241Z,23.69
2022-08-22T16:18:02.572Z,23.71
2022-08-22T16:21:16.632Z,23.61
2022-08-22T16:24:21.661Z,23.62
2022-08-22T16:27:27.023Z,23.59
2022-08-22T16:30:34.775Z,23.47
2022-08-22T16:33:41.954Z,23.44
2022-08-22T16:36:51.615Z,23.37
2022-08-22T16:39:58.964Z,23.34
2022-08-22T16:43:17.130Z,23.24
2022-08-22T16:46:36.372Z,23.25
2022-08-22T16:49:43.762Z,23.21
2022-08-22T16:53:04.408Z,23.19
2022-08-22T16:56:27.196Z,23.14
2022-08-22T16:59:44.568Z,23.10
2022-08-22T17:03:23.037Z,23.00
2022-08-22T17:06:48.834Z,23.05
2022-08-22T17:10:11.673Z,23.11
2022-08-22T17:13:19.243Z,23.04
2022-08-22T17:16:39.724Z,22.99
2022-08-22T17:20:18.756Z,23.00
2022-08-22T17:23:41.567Z,22.90
2022-08-22T17:27:02.131Z,22.79
2022-08-22T17:30:09.320Z,22.87
2022-08-22T17:33:28.882Z,22.81
2022-08-22T17:37:01.394Z,22.83
2022-08-22T17:40:33.520Z,22.76
2022-08-22T17:43:55.788Z,22.65
2022-08-22T17:47:08.025Z,22.66
2022-08-22T17:50:26.596Z,22.49
2022-08-22T17:54:01.277Z,22.49
2022-08-22T17:57:13.854Z,22.48
2022-08-22T18:00:26.299Z,22.50
2022-08-22T18:03:37.672Z,22.52
2022-08-22T18:06:49.174Z,22.37
2022-08-22T18:10:10.875Z,22.42
2022-08-22T18:13:30.910Z,22.31
2022-08-22T18:16:43.918Z,22.31
2022-08-22T18:20:11.204Z,22.30
2022-08-22T18:23:35.690Z,22.14
2022-08-22T18:27:01.183Z,22.03
2022-08-22T18:30:21.891Z,22.10
2022-08-22T18:33:35.845Z,22.04
2022-08-22T18:36:51.696Z,21.98
2022-08-22T18:40:08.377Z,21.95
2022-08-22T18:43:13.140Z,21.88
2022-08-22T18:46:37.794Z,21.90
2022-08-22T18:49:45.603Z,21.83
2022-08-22T18:52:50.878Z,21.70
2022-08-22T18:56:18.484Z,21.71
2022-08-22T18:59:40.776Z,21.62
2022-08-22T19:03:01.107Z,21.58
2022-08-22T19:06:24.224Z,21.56
2022-08-22T19:10:06.054Z,21.54
2022-08-22T19:13:23.960Z,21.54
2022-08-22T19:16:55.867Z,21.51
2022-08-22T19:20:27.815Z,21.50
2022-08-22T19:23:40.550Z,21.54
2022-08-22T19:27:06.352Z,21.46
2022-08-22T19:30:29.283Z,21.46
2022-08-22T19:33:41.820Z,21.38
2022-08-22T19:37:06.526Z,21.33
2022-08-22T19:40:45.349Z,21.25
2022-08-22T19:43:49.323Z,21.24
2022-08-22T19:47:18.095Z,21.16
2022-08-22T19:50:22.339Z,21.23
2022-08-22T19:53:46.958Z,21.10
2022-08-22T19:56:56.916Z,21.00
2022-08-22T20:00:09.600Z,21.01
2022-08-22T20:03:22.300Z,20.98
2022-08-22T20:06:46.049Z,20.95
2022-08-22T20:09:53.332Z,20.96
2022-08-22T20:13:18.260Z,20.95
2022-08-22T20:16:44.006Z,20.96
2022-08-22T20:23:29.471Z,20.90
2022-08-22T20:26:37.852Z,20.82
2022-08-22T20:30:14.036Z,20.83
2022-08-22T20:33:26.427Z,20.84
2022-08-22T20:36:31.799Z,20.75
2022-08-22T20:39:42.035Z,20.74
2022-08-22T20:42:50.310Z,20.71
2022-08-22T20:46:16.507Z,20.72
2022-08-22T20:49:31.480Z,20.65
2022-08-22T20:52:42.434Z,20.56
2022-08-22T20:55:55.627Z,20.55
2022-08-22T20:59:01.334Z,20.55
2022-08-22T21:02:21.281Z,20.65
2022-08-22T21:05:33.321Z,20.53
2022-08-22T21:08:38.051Z,20.49
2022-08-22T21:11:50.942Z,20.48
2022-08-22T21:14:55.000Z,20.44
2022-08-22T21:17:59.844Z,20.41
2022-08-22T21:21:17.742Z,20.42
2022-08-22T21:24:21.907Z,20.39
2022-08-22T21:27:32.665Z,20.40
2022-08-22T21:30:37.277Z,20.39
2022-08-22T21:33:47.015Z,20.39
2022-08-22T21:36:54.594Z,20.36
2022-08-22T21:40:21.457Z,20.33
2022-08-22T21:43:34.179Z,20.31
2022-08-22T21:46:38.501Z,20.29
2022-08-22T21:50:07.523Z,20.27
2022-08-22T21:53:27.558Z,20.27
2022-08-22T21:56:31.645Z,20.30
2022-08-22T21:59:51.773Z,20.26
2022-08-22T22:03:04.333Z,20.19
2022-08-22T22:06:11.668Z,20.09
2022-08-22T22:09:15.514Z,20.06
2022-08-22T22:12:20.265Z,20.01
2022-08-22T22:15:27.483Z,19.96
2022-08-22T22:18:32.841Z,19.96
2022-08-22T22:21:37.037Z,19.89
2022-08-22T22:24:41.301Z,19.88
2022-08-22T22:27:46.640Z,19.80
2022-08-22T22:30:53.241Z,19.74
2022-08-22T22:33:56.958Z,19.74
2022-08-22T22:37:01.102Z,19.69
2022-08-22T22:40:08.141Z,19.64
2022-08-22T22:43:13.329Z,19.63
2022-08-22T22:46:17.505Z,19.59
2022-08-22T22:49:21.381Z,19.55
2022-08-22T22:52:25.118Z,19.53
2022-08-22T22:55:29.699Z,19.49
2022-08-22T22:58:35.930Z,19.48
2022-08-22T23:02:07.192Z,19.44
2022-08-22T23:05:11.918Z,19.36
2022-08-22T23:08:15.894Z,19.27
2022-08-22T23:11:29.020Z,19.24
2022-08-22T23:14:33.998Z,19.19
2022-08-22T23:17:38.235Z,19.13
2022-08-22T23:20:42.467Z,19.11
2022-08-22T23:23:47.718Z,19.06
2022-08-22T23:26:52.350Z,19.01
2022-08-22T23:29:56.015Z,18.94
2022-08-22T23:33:00.053Z,18.90
2022-08-22T23:36:17.066Z,18.81
2022-08-22T23:39:22.684Z,18.78
2022-08-22T23:42:26.659Z,18.71
2022-08-22T23:45:30.632Z,18.68
2022-08-22T23:48:34.943Z,18.64
2022-08-22T23:51:39.665Z,18.62
2022-08-22T23:54:43.792Z,18.60
2022-08-22T23:57:47.807Z,18.55
